createdAt,value
2023-04-17T00:04:20.128Z,9.10
2023-04-17T00:09:36.308Z,9.10
2023-04-17T00:14:43.171Z,9.00
2023-04-17T00:19:45.347Z,8.90
2023-04-17T00:24:47.521Z,8.90
2023-04-17T00:29:52.873Z,8.90
2023-04-17T00:35:00.497Z,8.90
2023-04-17T00:40:05.390Z,8.90
2023-04-17T00:45:11.669Z,8.90
2023-04-17T00:55:51.468Z,9.00
2023-04-17T01:00:53.738Z,9.00
2023-04-17T01:06:04.286Z,9.00
2023-04-17T01:11:09.552Z,9.00
2023-04-17T01:16:13.804Z,9.00
2023-04-17T01:21:16.792Z,9.00
2023-04-17T01:26:22.009Z,9.00
2023-04-17T01:31:25.208Z,9.00
2023-04-17T01:36:41.610Z,9.00
2023-04-17T01:41:49.033Z,9.00
2023-04-17T01:46:55.217Z,9.00
2023-04-17T01:52:05.468Z,9.00
2023-04-17T01:57:07.581Z,9.00
2023-04-17T02:02:10.360Z,9.00
2023-04-17T02:07:12.756Z,9.10
2023-04-17T02:12:20.084Z,9.10
2023-04-17T02:17:22.264Z,9.00
2023-04-17T02:22:28.341Z,9.00
2023-04-17T02:27:30.829Z,8.90
2023-04-17T02:32:33.158Z,8.90
2023-04-17T02:37:38.653Z,8.80
2023-04-17T02:42:43.351Z,8.80
2023-04-17T02:47:49.433Z,8.80
2023-04-17T02:52:55.580Z,8.80
2023-04-17T02:58:00.614Z,8.80
2023-04-17T03:09:44.320Z,8.80
2023-04-17T03:14:47.643Z,8.70
2023-04-17T03:19:56.720Z,8.70
2023-04-17T03:25:03.085Z,8.70
2023-04-17T03:30:13.761Z,8.70
2023-04-17T03:35:18.799Z,8.70
2023-04-17T03:40:26.456Z,8.60
2023-04-17T03:45:30.070Z,8.60
2023-04-17T03:50:32.602Z,8.50
2023-04-17T03:55:37.593Z,8.50
2023-04-17T04:00:48.078Z,8.40
2023-04-17T04:05:52.624Z,8.40
2023-04-17T04:10:58.180Z,8.40
2023-04-17T04:16:00.456Z,8.40
2023-04-17T04:21:02.668Z,8.40
2023-04-17T04:26:16.186Z,8.40
2023-04-17T04:31:20.844Z,8.40
2023-04-17T04:42:23.222Z,8.30
2023-04-17T04:47:25.342Z,8.30
2023-04-17T04:52:31.531Z,8.30
2023-04-17T04:57:39.035Z,8.30
2023-04-17T05:02:41.017Z,8.30
2023-04-17T05:07:42.945Z,8.20
2023-04-17T05:12:45.100Z,8.20
2023-04-17T05:17:47.174Z,8.20
2023-04-17T05:22:49.572Z,8.20
2023-04-17T05:27:51.611Z,8.20
2023-04-17T05:32:54.459Z,8.20
2023-04-17T05:37:56.895Z,8.20
2023-04-17T05:43:05.890Z,8.20
2023-04-17T05:48:07.901Z,8.10
2023-04-17T05:53:12.533Z,8.10
2023-04-17T05:58:23.022Z,8.10
2023-04-17T06:03:26.958Z,8.10
2023-04-17T06:08:29.003Z,8.20
2023-04-17T06:13:30.935Z,8.20
2023-04-17T06:18:32.847Z,8.20
2023-04-17T06:23:34.812Z,8.20
2023-04-17T06:28:36.651Z,8.20
2023-04-17T06:33:38.568Z,8.10
2023-04-17T06:38:40.960Z,8.20
2023-04-17T06:43:42.997Z,8.20
2023-04-17T06:48:44.831Z,8.30
2023-04-17T06:53:47.903Z,8.20
2023-04-17T06:58:49.806Z,8.20
2023-04-17T07:03:51.798Z,8.20
2023-04-17T07:08:55.624Z,8.30
2023-04-17T07:13:57.774Z,8.30
2023-04-17T07:18:59.665Z,8.30
2023-04-17T07:24:01.753Z,8.30
2023-04-17T07:29:06.144Z,8.30
2023-04-17T07:34:07.995Z,8.40
2023-04-17T07:39:09.880Z,8.40
2023-04-17T07:44:11.834Z,8.40
2023-04-17T07:49:14.111Z,8.40
2023-04-17T07:54:16.300Z,8.50
2023-04-17T07:59:18.169Z,8.50
2023-04-17T08:04:21.696Z,8.50
2023-04-17T08:09:23.648Z,8.50
2023-04-17T08:14:25.616Z,8.60
2023-04-17T08:19:27.576Z,8.60
2023-04-17T08:24:30.789Z,8.60
2023-04-17T08:29:32.730Z,8.60
2023-04-17T08:34:36.175Z,8.50
2023-04-17T08:39:38.039Z,8.60
2023-04-17T08:44:39.903Z,8.60
2023-04-17T08:49:44.181Z,8.60
2023-04-17T08:54:49.062Z,8.70
2023-04-17T08:59:52.941Z,8.70
2023-04-17T09:04:54.974Z,8.70
2023-04-17T09:09:57.574Z,8.80
2023-04-17T09:14:59.414Z,8.90
2023-04-17T09:20:07.572Z,9.00
2023-04-17T09:25:20.164Z,9.10
2023-04-17T09:30:24.915Z,9.10
2023-04-17T09:35:26.833Z,9.30
2023-04-17T09:40:40.834Z,9.40
2023-04-17T09:45:44.583Z,9.50
2023-04-17T09:50:46.585Z,9.60
2023-04-17T09:55:49.455Z,9.80
2023-04-17T10:00:52.164Z,10.00
2023-04-17T10:05:54.325Z,10.20
2023-04-17T10:11:04.136Z,10.20
2023-04-17T10:16:06.498Z,10.50
2023-04-17T10:21:25.307Z,10.60
2023-04-17T10:26:29.946Z,10.80
2023-04-17T10:32:08.714Z,11.10
2023-04-17T10:37:15.323Z,11.30
2023-04-17T10:42:21.666Z,11.40
2023-04-17T10:47:30.502Z,11.70
2023-04-17T10:52:32.315Z,12.10
2023-04-17T10:58:04.687Z,12.10
2023-04-17T11:03:07.316Z,12.30
2023-04-17T11:08:10.108Z,12.30
2023-04-17T11:13:11.939Z,12.40
2023-04-17T11:18:14.129Z,12.40
2023-04-17T11:23:16.157Z,12.60
2023-04-17T11:28:18.028Z,13.10
2023-04-17T11:33:19.890Z,13.40
2023-04-17T11:38:23.392Z,13.60
2023-04-17T11:43:26.156Z,13.70
2023-04-17T11:48:29.364Z,13.60
2023-04-17T11:53:32.458Z,13.80
2023-04-17T11:58:34.551Z,14.40
2023-04-17T12:03:36.996Z,15.10
2023-04-17T12:08:53.608Z,15.20
2023-04-17T12:13:56.389Z,15.40
2023-04-17T12:18:58.247Z,15.70
2023-04-17T12:24:00.120Z,15.30
2023-04-17T12:29:04.365Z,15.00
2023-04-17T12:34:08.713Z,14.90
2023-04-17T12:39:12.909Z,14.90
2023-04-17T12:44:15.020Z,14.80
2023-04-17T12:49:17.086Z,15.00
2023-04-17T12:54:19.212Z,15.10
2023-04-17T12:59:21.192Z,15.40
2023-04-17T13:04:23.325Z,15.80
2023-04-17T13:09:25.405Z,15.90
2023-04-17T13:14:27.306Z,15.90
2023-04-17T13:19:29.119Z,16.00
2023-04-17T13:24:31.395Z,16.00
2023-04-17T13:29:33.495Z,15.90
2023-04-17T13:34:35.334Z,16.00
2023-04-17T13:39:37.259Z,15.90
2023-04-17T13:44:39.313Z,16.10
2023-04-17T13:49:41.226Z,16.40
2023-04-17T13:54:43.163Z,16.80
2023-04-17T13:59:45.354Z,17.10
2023-04-17T14:04:47.324Z,17.40
2023-04-17T14:09:49.245Z,17.60
2023-04-17T14:14:51.079Z,17.90
2023-04-17T14:19:53.082Z,18.20
2023-04-17T14:24:54.970Z,18.30
2023-04-17T14:29:57.804Z,18.90
2023-04-17T14:35:01.177Z,19.20
2023-04-17T14:40:04.831Z,19.30
2023-04-17T14:45:07.412Z,19.00
2023-04-17T14:50:09.664Z,18.70
2023-04-17T14:55:12.248Z,18.70
2023-04-17T15:00:14.781Z,18.70
2023-04-17T15:05:19.056Z,18.60
2023-04-17T15:10:21.048Z,18.70
2023-04-17T15:15:22.857Z,18.70
2023-04-17T15:20:25.205Z,18.80
2023-04-17T15:25:27.125Z,18.90
2023-04-17T15:30:28.914Z,18.90
2023-04-17T15:35:30.781Z,18.80
2023-04-17T15:40:32.892Z,18.80
2023-04-17T15:45:34.694Z,18.80
2023-04-17T15:50:37.417Z,19.00
2023-04-17T15:55:41.142Z,18.80
2023-04-17T16:00:43.130Z,18.70
2023-04-17T16:05:45.016Z,18.30
2023-04-17T16:10:46.846Z,18.10
2023-04-17T16:15:49.558Z,17.90
2023-04-17T16:20:51.532Z,17.80
2023-04-17T16:25:55.230Z,17.60
2023-04-17T16:30:57.290Z,17.40
2023-04-17T16:35:59.324Z,17.30
2023-04-17T16:41:03.506Z,17.10
2023-04-17T16:46:14.282Z,16.90
2023-04-17T16:51:20.812Z,16.70
2023-04-17T16:56:22.701Z,16.50
2023-04-17T17:01:24.789Z,16.30
2023-04-17T17:06:27.210Z,16.30
2023-04-17T17:11:29.001Z,16.10
2023-04-17T17:16:30.923Z,16.00
2023-04-17T17:21:32.996Z,15.80
2023-04-17T17:26:36.961Z,15.70
2023-04-17T17:31:39.101Z,15.60
2023-04-17T17:36:40.942Z,15.60
2023-04-17T17:41:43.984Z,15.50
2023-04-17T17:46:47.910Z,15.50
2023-04-17T17:51:52.750Z,15.40
2023-04-17T17:56:54.703Z,15.30
2023-04-17T18:01:57.421Z,15.20
2023-04-17T18:06:59.366Z,15.10
2023-04-17T18:12:04.605Z,15.00
2023-04-17T18:17:06.512Z,14.90
2023-04-17T18:22:09.028Z,14.80
2023-04-17T18:27:11.095Z,14.70
2023-04-17T18:32:13.091Z,14.60
2023-04-17T18:37:16.793Z,14.50
2023-04-17T18:42:22.972Z,14.30
2023-04-17T18:47:24.991Z,14.30
2023-04-17T18:52:26.924Z,14.10
2023-04-17T18:57:28.832Z,14.00
2023-04-17T19:08:32.051Z,13.80
2023-04-17T19:33:25.046Z,13.30
2023-04-17T19:50:30.562Z,12.90
2023-04-17T19:55:54.676Z,12.90
2023-04-17T20:07:30.194Z,12.60
2023-04-17T20:18:47.046Z,12.40
2023-04-17T20:24:59.650Z,12.30
2023-04-17T20:36:46.549Z,12.10
2023-04-17T20:42:03.648Z,12.10
2023-04-17T20:47:23.209Z,11.90
2023-04-17T20:52:32.254Z,11.80
2023-04-17T20:57:34.540Z,11.70
2023-04-17T21:02:38.143Z,11.70
2023-04-17T21:13:37.554Z,11.50
2023-04-17T21:18:53.212Z,11.40
2023-04-17T21:24:00.961Z,11.30
2023-04-17T21:29:35.708Z,11.20
2023-04-17T21:34:45.392Z,11.20
2023-04-17T21:40:13.523Z,11.10
2023-04-17T21:45:16.445Z,11.00
2023-04-17T21:50:28.598Z,10.90
2023-04-17T21:55:41.284Z,10.90
2023-04-17T22:00:45.000Z,10.80
2023-04-17T22:05:53.859Z,10.70
2023-04-17T22:10:59.032Z,10.60
2023-04-17T22:16:07.466Z,10.60
2023-04-17T22:21:15.081Z,10.50
2023-04-17T22:26:17.512Z,10.50
2023-04-17T22:31:20.287Z,10.40
2023-04-17T22:36:27.742Z,10.30
2023-04-17T22:41:31.246Z,10.30
2023-04-17T22:46:34.902Z,10.20
2023-04-17T22:51:46.011Z,10.10
2023-04-17T22:57:00.794Z,10.10
2023-04-17T23:02:11.823Z,10.00
2023-04-17T23:07:15.400Z,9.90
2023-04-17T23:12:26.307Z,9.80
2023-04-17T23:17:32.192Z,9.70
2023-04-17T23:22:37.878Z,9.70
2023-04-17T23:27:42.780Z,9.60
2023-04-17T23:32:48.827Z,9.50
2023-04-17T23:37:53.295Z,9.50
2023-04-17T23:42:56.209Z,9.40
2023-04-17T23:48:02.526Z,9.30
2023-04-17T23:53:11.779Z,9.30
2023-04-17T23:58:15.266Z,9.20
